Summary for RAINWISE1

Rainwise Factory, Bar Harbor, ME 04609
Join the PWSweather.com Network
View data in metric units
Latest Conditions
Updated 9:10:00 PM EDT Saturday, Apr 25, 2015
Data Currently Today's Max Today's Min Today's Average
Temperature 39.5°F4.2°C 48.2°F9.0°C 29.8°F-1.2°C 39.4°F4.1°C
Dew Point 32.6°F0.3°C 34.0°F1.1°C 25.0°F-3.9°C 29.6°F-1.3°C
Winds 0.8 mph NNW1.3 kmh NNW 8.6 mph NW13.8 kmh NW CalmCalm 3.3 mph5.3 kmh
Wind Gusts 3.0 mph4.8 kmh 14.6 mph23.5 kmh -- 6.2 mph10.0 kmh
Humidity 81% 90% 53% 73%
Pressure 29.67 in1004.7 mb 29.68 in1005.1 mb 29.62 in1003.0 mb 29.66 in1004.4 mb
Precipitation 0.00 in0.0 mm - - 0.00 in0.0 mm
Trends
 
Station Profile
Rainwise FactoryBar Harbor, ME 04609

Lat: 44.39, Lon: -68.208
Elevation: 29
Station Type: Rainwise MK-III

Detailed Summary for Sat, Apr 25, 2015
Hour (EDT) Temperature Dew Point Humidity Winds Wind Gusts Pressure Precip Precip Rate Daily Precip Total
09:10 PM 39.5°F4.2°C 32.6°F0.3°C 81% 0.8 mph NNW1.3 kmh NNW 3.0 mph4.8 kmh 29.67 in1004.7 mb 0.00 in0.0 mm 0.00 in0.0 mm 0.00 in0.0 mm
09:05 PM 40.0°F4.4°C 32.8°F0.4°C 80% 0.6 mph WNW1.0 kmh WNW 1.3 mph2.1 kmh 29.67 in1004.7 mb 0.00 in0.0 mm 0.00 in0.0 mm 0.00 in0.0 mm
09:00 PM 40.2°F4.6°C 33.0°F0.6°C 80% 0.1 mph WNW0.2 kmh WNW 1.1 mph1.8 kmh 29.67 in1004.7 mb 0.00 in0.0 mm 0.00 in0.0 mm 0.00 in0.0 mm
08:55 PM 40.2°F4.6°C 33.0°F0.6°C 80% 0.3 mph WNW0.5 kmh WNW 1.6 mph2.6 kmh 29.67 in1004.7 mb 0.00 in0.0 mm 0.00 in0.0 mm 0.00 in0.0 mm
08:50 PM 40.1°F4.5°C 32.9°F0.5°C 80% 0.1 mph WNW0.2 kmh WNW 1.6 mph2.6 kmh 29.67 in1004.7 mb 0.00 in0.0 mm 0.00 in0.0 mm 0.00 in0.0 mm
08:45 PM 40.1°F4.5°C 33.3°F0.7°C 81% 0.2 mph WNW0.3 kmh WNW 1.6 mph2.6 kmh 29.67 in1004.7 mb 0.00 in0.0 mm 0.00 in0.0 mm 0.00 in0.0 mm
08:40 PM 40.2°F4.6°C 33.0°F0.6°C 80% Calm Calm -- 29.67 in1004.7 mb 0.00 in0.0 mm 0.00 in0.0 mm 0.00 in0.0 mm
08:35 PM 40.2°F4.6°C 33.0°F0.6°C 80% Calm Calm -- 29.67 in1004.7 mb 0.00 in0.0 mm 0.00 in0.0 mm 0.00 in0.0 mm
08:30 PM 40.2°F4.6°C 33.0°F0.6°C 80% Calm Calm -- 29.67 in1004.7 mb 0.00 in0.0 mm 0.00 in0.0 mm 0.00 in0.0 mm
08:25 PM 40.2°F4.6°C 33.0°F0.6°C 80% 0.1 mph WNW0.2 kmh WNW 1.1 mph1.8 kmh 29.67 in1004.7 mb 0.00 in0.0 mm 0.00 in0.0 mm 0.00 in0.0 mm
08:20 PM 40.2°F4.6°C 33.0°F0.6°C 80% 0.1 mph WNW0.2 kmh WNW 1.3 mph2.1 kmh 29.67 in1004.7 mb 0.00 in0.0 mm 0.00 in0.0 mm 0.00 in0.0 mm
08:15 PM 40.3°F4.6°C 32.7°F0.4°C 79% 0.1 mph WNW0.2 kmh WNW 1.3 mph2.1 kmh 29.67 in1004.7 mb 0.00 in0.0 mm 0.00 in0.0 mm 0.00 in0.0 mm
08:10 PM 40.4°F4.7°C 32.5°F0.3°C 78% 0.5 mph WNW0.8 kmh WNW 2.1 mph3.4 kmh 29.67 in1004.7 mb 0.00 in0.0 mm 0.00 in0.0 mm 0.00 in0.0 mm
08:05 PM 40.6°F4.8°C 32.3°F0.2°C 77% 0.0 mph WNW0.0 kmh WNW 1.1 mph1.8 kmh 29.66 in1004.4 mb 0.00 in0.0 mm 0.00 in0.0 mm 0.00 in0.0 mm
08:00 PM 40.8°F4.9°C 32.1°F0.1°C 76% Calm Calm -- 29.66 in1004.4 mb 0.00 in0.0 mm 0.00 in0.0 mm 0.00 in0.0 mm
07:55 PM 41.0°F5.0°C 32.0°F0.0°C 75% 0.1 mph WNW0.2 kmh WNW 1.1 mph1.8 kmh 29.67 in1004.7 mb 0.00 in0.0 mm 0.00 in0.0 mm 0.00 in0.0 mm
07:50 PM 41.4°F5.2°C 31.6°F-0.2°C 73% 0.1 mph WNW0.2 kmh WNW 1.3 mph2.1 kmh 29.67 in1004.7 mb 0.00 in0.0 mm 0.00 in0.0 mm 0.00 in0.0 mm
07:45 PM 42.0°F5.6°C 31.2°F-0.4°C 70% 0.8 mph WNW1.3 kmh WNW 2.6 mph4.2 kmh 29.66 in1004.4 mb 0.00 in0.0 mm 0.00 in0.0 mm 0.00 in0.0 mm
07:40 PM 42.7°F5.9°C 30.8°F-0.7°C 67% 0.3 mph WNW0.5 kmh WNW 1.6 mph2.6 kmh 29.66 in1004.4 mb 0.00 in0.0 mm 0.00 in0.0 mm 0.00 in0.0 mm
07:35 PM 43.5°F6.4°C 30.9°F-0.6°C 65% 0.1 mph WNW0.2 kmh WNW 1.3 mph2.1 kmh 29.66 in1004.4 mb 0.00 in0.0 mm 0.00 in0.0 mm 0.00 in0.0 mm
07:30 PM 44.4°F6.9°C 31.1°F-0.5°C 63% 0.8 mph WNW1.3 kmh WNW 2.1 mph3.4 kmh 29.66 in1004.4 mb 0.00 in0.0 mm 0.00 in0.0 mm 0.00 in0.0 mm
07:25 PM 45.1°F7.3°C 30.7°F-0.7°C 60% 0.1 mph NNW0.2 kmh NNW 1.3 mph2.1 kmh 29.67 in1004.7 mb 0.00 in0.0 mm 0.00 in0.0 mm 0.00 in0.0 mm
07:20 PM 45.6°F7.6°C 30.1°F-1.1°C 57% 0.9 mph NNW1.4 kmh NNW 2.6 mph4.2 kmh 29.67 in1004.7 mb 0.00 in0.0 mm 0.00 in0.0 mm 0.00 in0.0 mm
07:15 PM 45.8°F7.7°C 30.3°F-0.9°C 57% 1.8 mph NNW2.9 kmh NNW 3.7 mph6.0 kmh 29.67 in1004.7 mb 0.00 in0.0 mm 0.00 in0.0 mm 0.00 in0.0 mm
07:10 PM 45.8°F7.7°C 30.3°F-0.9°C 57% 2.3 mph NNW3.7 kmh NNW 3.7 mph6.0 kmh 29.67 in1004.7 mb 0.00 in0.0 mm 0.00 in0.0 mm 0.00 in0.0 mm
07:05 PM 46.0°F7.8°C 30.5°F-0.8°C 57% 1.9 mph N3.1 kmh N 2.7 mph4.3 kmh 29.67 in1004.7 mb 0.00 in0.0 mm 0.00 in0.0 mm 0.00 in0.0 mm
07:00 PM 46.1°F7.8°C 30.2°F-1.0°C 56% 2.1 mph NNW3.4 kmh NNW 3.5 mph5.6 kmh 29.67 in1004.7 mb 0.00 in0.0 mm 0.00 in0.0 mm 0.00 in0.0 mm
06:55 PM 46.2°F7.9°C 30.3°F-0.9°C 56% 2.7 mph NNW4.3 kmh NNW 4.0 mph6.4 kmh 29.67 in1004.7 mb 0.00 in0.0 mm 0.00 in0.0 mm 0.00 in0.0 mm
06:50 PM 46.2°F7.9°C 30.4°F-0.9°C 56% 2.8 mph NNW4.5 kmh NNW 4.9 mph7.9 kmh 29.66 in1004.4 mb 0.00 in0.0 mm 0.00 in0.0 mm 0.00 in0.0 mm
06:45 PM 46.2°F7.9°C 30.4°F-0.9°C 56% 1.9 mph N3.1 kmh N 3.7 mph6.0 kmh 29.66 in1004.4 mb 0.00 in0.0 mm 0.00 in0.0 mm 0.00 in0.0 mm
06:40 PM 46.3°F7.9°C 30.1°F-1.1°C 55% 3.4 mph N5.5 kmh N 5.7 mph9.2 kmh 29.66 in1004.4 mb 0.00 in0.0 mm 0.00 in0.0 mm 0.00 in0.0 mm
06:35 PM 46.3°F7.9°C 30.1°F-1.1°C 55% 3.0 mph NNW4.8 kmh NNW 5.7 mph9.2 kmh 29.67 in1004.7 mb 0.00 in0.0 mm 0.00 in0.0 mm 0.00 in0.0 mm
06:30 PM 46.4°F8.0°C 29.8°F-1.2°C 54% 3.4 mph NNW5.5 kmh NNW 5.0 mph8.0 kmh 29.66 in1004.4 mb 0.00 in0.0 mm 0.00 in0.0 mm 0.00 in0.0 mm
06:25 PM 46.6°F8.1°C 30.0°F-1.1°C 54% 3.9 mph NNW6.3 kmh NNW 7.2 mph11.6 kmh 29.66 in1004.4 mb 0.00 in0.0 mm 0.00 in0.0 mm 0.00 in0.0 mm
06:20 PM 46.7°F8.2°C 30.1°F-1.1°C 54% 4.4 mph N7.1 kmh N 6.7 mph10.8 kmh 29.66 in1004.4 mb 0.00 in0.0 mm 0.00 in0.0 mm 0.00 in0.0 mm
06:15 PM 46.9°F8.3°C 30.4°F-0.9°C 54% 4.5 mph NNW7.2 kmh NNW 7.7 mph12.4 kmh 29.66 in1004.4 mb 0.00 in0.0 mm 0.00 in0.0 mm 0.00 in0.0 mm
06:10 PM 47.1°F8.4°C 30.5°F-0.8°C 54% 5.3 mph N8.5 kmh N 8.4 mph13.5 kmh 29.66 in1004.4 mb 0.00 in0.0 mm 0.00 in0.0 mm 0.00 in0.0 mm
06:05 PM 47.1°F8.4°C 30.5°F-0.8°C 54% 4.5 mph N7.2 kmh N 7.5 mph12.1 kmh 29.66 in1004.4 mb 0.00 in0.0 mm 0.00 in0.0 mm 0.00 in0.0 mm
06:00 PM 47.2°F8.4°C 30.2°F-1.0°C 53% 6.1 mph N9.8 kmh N 11.4 mph18.3 kmh 29.66 in1004.4 mb 0.00 in0.0 mm 0.00 in0.0 mm 0.00 in0.0 mm
05:55 PM 47.2°F8.4°C 30.3°F-0.9°C 53% 5.4 mph N8.7 kmh N 11.0 mph17.7 kmh 29.66 in1004.4 mb 0.00 in0.0 mm 0.00 in0.0 mm 0.00 in0.0 mm
05:50 PM 47.3°F8.5°C 30.7°F-0.7°C 54% 6.3 mph NNW10.1 kmh NNW 11.1 mph17.9 kmh 29.66 in1004.4 mb 0.00 in0.0 mm 0.00 in0.0 mm 0.00 in0.0 mm
05:45 PM 47.3°F8.5°C 30.7°F-0.7°C 54% 4.9 mph N7.9 kmh N 8.4 mph13.5 kmh 29.66 in1004.4 mb 0.00 in0.0 mm 0.00 in0.0 mm 0.00 in0.0 mm
05:40 PM 47.5°F8.6°C 30.6°F-0.8°C 53% 6.1 mph N9.8 kmh N 11.9 mph19.2 kmh 29.66 in1004.4 mb 0.00 in0.0 mm 0.00 in0.0 mm 0.00 in0.0 mm
05:35 PM 47.6°F8.7°C 31.1°F-0.5°C 54% 5.8 mph NNW9.3 kmh NNW 9.0 mph14.5 kmh 29.66 in1004.4 mb 0.00 in0.0 mm 0.00 in0.0 mm 0.00 in0.0 mm
05:30 PM 47.7°F8.7°C 31.2°F-0.4°C 54% 4.9 mph NNW7.9 kmh NNW 7.9 mph12.7 kmh 29.67 in1004.7 mb 0.00 in0.0 mm 0.00 in0.0 mm 0.00 in0.0 mm
05:25 PM 48.0°F8.9°C 31.1°F-0.5°C 53% 4.5 mph N7.2 kmh N 7.7 mph12.4 kmh 29.67 in1004.7 mb 0.00 in0.0 mm 0.00 in0.0 mm 0.00 in0.0 mm
05:20 PM 48.1°F8.9°C 31.1°F-0.5°C 53% 5.8 mph N9.3 kmh N 10.6 mph17.1 kmh 29.66 in1004.4 mb 0.00 in0.0 mm 0.00 in0.0 mm 0.00 in0.0 mm
05:15 PM 48.0°F8.9°C 31.4°F-0.3°C 54% 6.0 mph NNW9.7 kmh NNW 9.0 mph14.5 kmh 29.66 in1004.4 mb 0.00 in0.0 mm 0.00 in0.0 mm 0.00 in0.0 mm
05:10 PM 47.8°F8.8°C 31.6°F-0.2°C 55% 5.0 mph N8.0 kmh N 9.3 mph15.0 kmh 29.66 in1004.4 mb 0.00 in0.0 mm 0.00 in0.0 mm 0.00 in0.0 mm
05:05 PM 47.7°F8.7°C 31.5°F-0.3°C 55% 5.5 mph N8.9 kmh N 8.5 mph13.7 kmh 29.66 in1004.4 mb 0.00 in0.0 mm 0.00 in0.0 mm 0.00 in0.0 mm
05:00 PM 47.6°F8.7°C 31.4°F-0.3°C 55% 5.4 mph N8.7 kmh N 10.5 mph16.9 kmh 29.66 in1004.4 mb 0.00 in0.0 mm 0.00 in0.0 mm 0.00 in0.0 mm
04:55 PM 47.9°F8.8°C 31.7°F-0.2°C 55% 4.2 mph N6.8 kmh N 7.7 mph12.4 kmh 29.66 in1004.4 mb 0.00 in0.0 mm 0.00 in0.0 mm 0.00 in0.0 mm
04:50 PM 48.2°F9.0°C 32.3°F0.2°C 56% 6.5 mph NNE10.5 kmh NNE 11.0 mph17.7 kmh 29.66 in1004.4 mb 0.00 in0.0 mm 0.00 in0.0 mm 0.00 in0.0 mm
04:45 PM 48.0°F8.9°C 31.8°F-0.1°C 55% 5.7 mph N9.2 kmh N 10.6 mph17.1 kmh 29.66 in1004.4 mb 0.00 in0.0 mm 0.00 in0.0 mm 0.00 in0.0 mm
04:40 PM 47.7°F8.7°C 31.5°F-0.3°C 55% 6.0 mph N9.7 kmh N 12.5 mph20.1 kmh 29.66 in1004.4 mb 0.00 in0.0 mm 0.00 in0.0 mm 0.00 in0.0 mm
04:35 PM 47.6°F8.7°C 31.7°F-0.2°C 56% 6.9 mph NNW11.1 kmh NNW 11.0 mph17.7 kmh 29.66 in1004.4 mb 0.00 in0.0 mm 0.00 in0.0 mm 0.00 in0.0 mm
04:30 PM 47.3°F8.5°C 31.8°F-0.1°C 57% 6.7 mph N10.8 kmh N 10.6 mph17.1 kmh 29.66 in1004.4 mb 0.00 in0.0 mm 0.00 in0.0 mm 0.00 in0.0 mm
04:25 PM 47.2°F8.4°C 31.7°F-0.2°C 57% 5.4 mph NNW8.7 kmh NNW 9.5 mph15.3 kmh 29.66 in1004.4 mb 0.00 in0.0 mm 0.00 in0.0 mm 0.00 in0.0 mm
04:20 PM 47.1°F8.4°C 31.9°F-0.1°C 58% 5.8 mph N9.3 kmh N 9.8 mph15.8 kmh 29.66 in1004.4 mb 0.00 in0.0 mm 0.00 in0.0 mm 0.00 in0.0 mm
04:15 PM 46.8°F8.2°C 31.6°F-0.2°C 58% 5.4 mph N8.7 kmh N 10.5 mph16.9 kmh 29.66 in1004.4 mb 0.00 in0.0 mm 0.00 in0.0 mm 0.00 in0.0 mm
04:10 PM 46.7°F8.2°C 31.2°F-0.4°C 57% 6.1 mph N9.8 kmh N 8.9 mph14.3 kmh 29.66 in1004.4 mb 0.00 in0.0 mm 0.00 in0.0 mm 0.00 in0.0 mm
04:05 PM 46.6°F8.1°C 31.1°F-0.5°C 57% 4.1 mph N6.6 kmh N 9.0 mph14.5 kmh 29.66 in1004.4 mb 0.00 in0.0 mm 0.00 in0.0 mm 0.00 in0.0 mm
04:00 PM 46.6°F8.1°C 31.1°F-0.5°C 57% 6.4 mph N10.3 kmh N 10.3 mph16.6 kmh 29.66 in1004.4 mb 0.00 in0.0 mm 0.00 in0.0 mm 0.00 in0.0 mm
03:55 PM 46.4°F8.0°C 30.9°F-0.6°C 57% 6.1 mph N9.8 kmh N 11.6 mph18.7 kmh 29.65 in1004.1 mb 0.00 in0.0 mm 0.00 in0.0 mm 0.00 in0.0 mm
03:50 PM 46.3°F7.9°C 30.8°F-0.7°C 57% 6.6 mph NNW10.6 kmh NNW 11.1 mph17.9 kmh 29.66 in1004.4 mb 0.00 in0.0 mm 0.00 in0.0 mm 0.00 in0.0 mm
03:45 PM 46.3°F7.9°C 30.8°F-0.7°C 57% 5.0 mph NW8.0 kmh NW 9.0 mph14.5 kmh 29.66 in1004.4 mb 0.00 in0.0 mm 0.00 in0.0 mm 0.00 in0.0 mm
03:40 PM 46.6°F8.1°C 31.1°F-0.5°C 57% 3.7 mph NNW6.0 kmh NNW 5.7 mph9.2 kmh 29.65 in1004.1 mb 0.00 in0.0 mm 0.00 in0.0 mm 0.00 in0.0 mm
03:35 PM 46.8°F8.2°C 31.3°F-0.4°C 57% 6.0 mph NW9.7 kmh NW 11.1 mph17.9 kmh 29.66 in1004.4 mb 0.00 in0.0 mm 0.00 in0.0 mm 0.00 in0.0 mm
03:30 PM 46.8°F8.2°C 31.3°F-0.4°C 57% 6.3 mph NNW10.1 kmh NNW 10.3 mph16.6 kmh 29.65 in1004.1 mb 0.00 in0.0 mm 0.00 in0.0 mm 0.00 in0.0 mm
03:25 PM 46.8°F8.2°C 32.0°F0.0°C 59% 6.1 mph NW9.8 kmh NW 12.4 mph20.0 kmh 29.65 in1004.1 mb 0.00 in0.0 mm 0.00 in0.0 mm 0.00 in0.0 mm
03:20 PM 46.8°F8.2°C 31.7°F-0.2°C 58% 4.3 mph N6.9 kmh N 7.5 mph12.1 kmh 29.65 in1004.1 mb 0.00 in0.0 mm 0.00 in0.0 mm 0.00 in0.0 mm
03:15 PM 46.8°F8.2°C 31.0°F-0.6°C 56% 4.4 mph NNE7.1 kmh NNE 7.2 mph11.6 kmh 29.65 in1004.1 mb 0.00 in0.0 mm 0.00 in0.0 mm 0.00 in0.0 mm
03:10 PM 47.0°F8.3°C 31.2°F-0.4°C 56% 6.1 mph N9.8 kmh N 12.0 mph19.3 kmh 29.65 in1004.1 mb 0.00 in0.0 mm 0.00 in0.0 mm 0.00 in0.0 mm
03:05 PM 46.8°F8.2°C 31.0°F-0.6°C 56% 5.9 mph NNW9.5 kmh NNW 8.9 mph14.3 kmh 29.66 in1004.4 mb 0.00 in0.0 mm 0.00 in0.0 mm 0.00 in0.0 mm
03:00 PM 46.6°F8.1°C 31.1°F-0.5°C 57% 5.6 mph NW9.0 kmh NW 11.6 mph18.7 kmh 29.66 in1004.4 mb 0.00 in0.0 mm 0.00 in0.0 mm 0.00 in0.0 mm
02:55 PM 46.3°F7.9°C 31.2°F-0.4°C 58% 6.8 mph N10.9 kmh N 10.5 mph16.9 kmh 29.66 in1004.4 mb 0.00 in0.0 mm 0.00 in0.0 mm 0.00 in0.0 mm
02:50 PM 46.2°F7.9°C 31.8°F-0.1°C 60% 6.0 mph NNW9.7 kmh NNW 11.1 mph17.9 kmh 29.66 in1004.4 mb 0.00 in0.0 mm 0.00 in0.0 mm 0.00 in0.0 mm
02:45 PM 46.2°F7.9°C 31.8°F-0.1°C 60% 3.9 mph N6.3 kmh N 6.0 mph9.7 kmh 29.66 in1004.4 mb 0.00 in0.0 mm 0.00 in0.0 mm 0.00 in0.0 mm
02:40 PM 46.2°F7.9°C 31.4°F-0.3°C 59% 3.8 mph N6.1 kmh N 8.4 mph13.5 kmh 29.66 in1004.4 mb 0.00 in0.0 mm 0.00 in0.0 mm 0.00 in0.0 mm
02:35 PM 46.0°F7.8°C 31.3°F-0.4°C 59% 5.0 mph NW8.0 kmh NW 7.5 mph12.1 kmh 29.66 in1004.4 mb 0.00 in0.0 mm 0.00 in0.0 mm 0.00 in0.0 mm
02:30 PM 45.8°F7.7°C 30.7°F-0.7°C 58% 3.9 mph N6.3 kmh N 6.5 mph10.5 kmh 29.66 in1004.4 mb 0.00 in0.0 mm 0.00 in0.0 mm 0.00 in0.0 mm
02:25 PM 46.0°F7.8°C 31.3°F-0.4°C 59% 4.4 mph WNW7.1 kmh WNW 7.5 mph12.1 kmh 29.66 in1004.4 mb 0.00 in0.0 mm 0.00 in0.0 mm 0.00 in0.0 mm
02:20 PM 46.2°F7.9°C 31.5°F-0.3°C 59% 7.1 mph NNW11.4 kmh NNW 10.3 mph16.6 kmh 29.66 in1004.4 mb 0.00 in0.0 mm 0.00 in0.0 mm 0.00 in0.0 mm
02:15 PM 46.3°F7.9°C 32.3°F0.2°C 61% 6.9 mph NNW11.1 kmh NNW 10.3 mph16.6 kmh 29.66 in1004.4 mb 0.00 in0.0 mm 0.00 in0.0 mm 0.00 in0.0 mm
02:10 PM 46.3°F7.9°C 33.0°F0.6°C 63% 5.2 mph N8.4 kmh N 8.4 mph13.5 kmh 29.66 in1004.4 mb 0.00 in0.0 mm 0.00 in0.0 mm 0.00 in0.0 mm
02:05 PM 46.2°F7.9°C 33.2°F0.7°C 64% 5.0 mph NNW8.0 kmh NNW 7.0 mph11.3 kmh 29.66 in1004.4 mb 0.00 in0.0 mm 0.00 in0.0 mm 0.00 in0.0 mm
02:00 PM 45.7°F7.6°C 32.7°F0.4°C 64% 4.1 mph N6.6 kmh N 8.1 mph13.0 kmh 29.66 in1004.4 mb 0.00 in0.0 mm 0.00 in0.0 mm 0.00 in0.0 mm
01:55 PM 45.6°F7.6°C 32.3°F0.2°C 63% 4.8 mph N7.7 kmh N 7.9 mph12.7 kmh 29.67 in1004.7 mb 0.00 in0.0 mm 0.00 in0.0 mm 0.00 in0.0 mm
01:50 PM 45.6°F7.6°C 31.9°F-0.1°C 62% 3.9 mph NNE6.3 kmh NNE 6.5 mph10.5 kmh 29.66 in1004.4 mb 0.00 in0.0 mm 0.00 in0.0 mm 0.00 in0.0 mm
01:45 PM 45.2°F7.3°C 32.2°F0.1°C 64% 5.4 mph N8.7 kmh N 8.1 mph13.0 kmh 29.67 in1004.7 mb 0.00 in0.0 mm 0.00 in0.0 mm 0.00 in0.0 mm
01:40 PM 44.9°F7.2°C 32.6°F0.3°C 66% 5.1 mph N8.2 kmh N 8.4 mph13.5 kmh 29.67 in1004.7 mb 0.00 in0.0 mm 0.00 in0.0 mm 0.00 in0.0 mm
01:35 PM 44.7°F7.1°C 32.1°F0.1°C 65% 3.8 mph NE6.1 kmh NE 6.2 mph10.0 kmh 29.67 in1004.7 mb 0.00 in0.0 mm 0.00 in0.0 mm 0.00 in0.0 mm
01:30 PM 44.7°F7.1°C 32.1°F0.1°C 65% 5.7 mph NNE9.2 kmh NNE 10.6 mph17.1 kmh 29.67 in1004.7 mb 0.00 in0.0 mm 0.00 in0.0 mm 0.00 in0.0 mm
01:25 PM 44.4°F6.9°C 31.8°F-0.1°C 65% 4.2 mph NNE6.8 kmh NNE 6.7 mph10.8 kmh 29.67 in1004.7 mb 0.00 in0.0 mm 0.00 in0.0 mm 0.00 in0.0 mm
01:20 PM 44.3°F6.8°C 31.0°F-0.6°C 63% 3.5 mph N5.6 kmh N 6.2 mph10.0 kmh 29.67 in1004.7 mb 0.00 in0.0 mm 0.00 in0.0 mm 0.00 in0.0 mm
01:15 PM 44.6°F7.0°C 31.3°F-0.4°C 63% 5.5 mph ENE8.9 kmh ENE 9.5 mph15.3 kmh 29.67 in1004.7 mb 0.00 in0.0 mm 0.00 in0.0 mm 0.00 in0.0 mm
01:10 PM 44.8°F7.1°C 31.4°F-0.3°C 63% 4.9 mph N7.9 kmh N 9.8 mph15.8 kmh 29.67 in1004.7 mb 0.00 in0.0 mm 0.00 in0.0 mm 0.00 in0.0 mm
01:05 PM 44.9°F7.2°C 31.6°F-0.2°C 63% 5.6 mph N9.0 kmh N 8.9 mph14.3 kmh 29.67 in1004.7 mb 0.00 in0.0 mm 0.00 in0.0 mm 0.00 in0.0 mm
01:00 PM 45.0°F7.2°C 31.3°F-0.4°C 62% 4.5 mph N7.2 kmh N 9.0 mph14.5 kmh 29.67 in1004.7 mb 0.00 in0.0 mm 0.00 in0.0 mm 0.00 in0.0 mm
12:55 PM 45.2°F7.3°C 31.5°F-0.3°C 62% 4.2 mph N6.8 kmh N 8.9 mph14.3 kmh 29.67 in1004.7 mb 0.00 in0.0 mm 0.00 in0.0 mm 0.00 in0.0 mm
12:50 PM 45.2°F7.3°C 31.5°F-0.3°C 62% 7.3 mph NNW11.7 kmh NNW 11.9 mph19.2 kmh 29.66 in1004.4 mb 0.00 in0.0 mm 0.00 in0.0 mm 0.00 in0.0 mm
12:45 PM 45.3°F7.4°C 32.7°F0.4°C 65% 4.8 mph NNW7.7 kmh NNW 10.0 mph16.1 kmh 29.66 in1004.4 mb 0.00 in0.0 mm 0.00 in0.0 mm 0.00 in0.0 mm
12:40 PM 45.3°F7.4°C 33.4°F0.8°C 67% 6.0 mph NNW9.7 kmh NNW 10.5 mph16.9 kmh 29.66 in1004.4 mb 0.00 in0.0 mm 0.00 in0.0 mm 0.00 in0.0 mm
12:35 PM 45.5°F7.5°C 34.0°F1.1°C 68% 3.2 mph N5.1 kmh N 7.0 mph11.3 kmh 29.66 in1004.4 mb 0.00 in0.0 mm 0.00 in0.0 mm 0.00 in0.0 mm
12:30 PM 45.6°F7.6°C 34.0°F1.1°C 68% 4.1 mph N6.6 kmh N 7.2 mph11.6 kmh 29.67 in1004.7 mb 0.00 in0.0 mm 0.00 in0.0 mm 0.00 in0.0 mm
12:25 PM 45.2°F7.3°C 33.3°F0.7°C 67% 5.0 mph N8.0 kmh N 8.4 mph13.5 kmh 29.66 in1004.4 mb 0.00 in0.0 mm 0.00 in0.0 mm 0.00 in0.0 mm
12:20 PM 44.8°F7.1°C 31.8°F-0.1°C 64% 4.7 mph N7.6 kmh N 7.5 mph12.1 kmh 29.66 in1004.4 mb 0.00 in0.0 mm 0.00 in0.0 mm 0.00 in0.0 mm
12:15 PM 44.7°F7.1°C 31.4°F-0.3°C 63% 4.9 mph NNE7.9 kmh NNE 9.5 mph15.3 kmh 29.66 in1004.4 mb 0.00 in0.0 mm 0.00 in0.0 mm 0.00 in0.0 mm
12:10 PM 44.5°F6.9°C 32.3°F0.2°C 66% 5.9 mph N9.5 kmh N 9.3 mph15.0 kmh 29.66 in1004.4 mb 0.00 in0.0 mm 0.00 in0.0 mm 0.00 in0.0 mm
12:05 PM 44.1°F6.7°C 32.6°F0.3°C 68% 5.0 mph NNW8.0 kmh NNW 9.5 mph15.3 kmh 29.66 in1004.4 mb 0.00 in0.0 mm 0.00 in0.0 mm 0.00 in0.0 mm
12:00 PM 43.7°F6.5°C 32.2°F0.1°C 68% 4.2 mph N6.8 kmh N 7.9 mph12.7 kmh 29.66 in1004.4 mb 0.00 in0.0 mm 0.00 in0.0 mm 0.00 in0.0 mm
11:55 AM 43.4°F6.3°C 32.3°F0.2°C 69% 4.6 mph N7.4 kmh N 9.3 mph15.0 kmh 29.66 in1004.4 mb 0.00 in0.0 mm 0.00 in0.0 mm 0.00 in0.0 mm
11:50 AM 43.2°F6.2°C 31.3°F-0.4°C 67% 4.1 mph N6.6 kmh N 7.2 mph11.6 kmh 29.66 in1004.4 mb 0.00 in0.0 mm 0.00 in0.0 mm 0.00 in0.0 mm
11:45 AM 43.3°F6.3°C 30.4°F-0.9°C 64% 4.1 mph NNE6.6 kmh NNE 7.5 mph12.1 kmh 29.66 in1004.4 mb 0.00 in0.0 mm 0.00 in0.0 mm 0.00 in0.0 mm
11:40 AM 43.6°F6.4°C 30.2°F-1.0°C 63% 4.1 mph N6.6 kmh N 7.2 mph11.6 kmh 29.66 in1004.4 mb 0.00 in0.0 mm 0.00 in0.0 mm 0.00 in0.0 mm
11:35 AM 43.5°F6.4°C 30.9°F-0.6°C 65% 4.4 mph WNW7.1 kmh WNW 6.7 mph10.8 kmh 29.66 in1004.4 mb 0.00 in0.0 mm 0.00 in0.0 mm 0.00 in0.0 mm
11:30 AM 43.5°F6.4°C 31.6°F-0.2°C 67% 5.0 mph N8.0 kmh N 9.3 mph15.0 kmh 29.66 in1004.4 mb 0.00 in0.0 mm 0.00 in0.0 mm 0.00 in0.0 mm
11:25 AM 43.5°F6.4°C 32.7°F0.4°C 70% 5.1 mph NNW8.2 kmh NNW 8.5 mph13.7 kmh 29.66 in1004.4 mb 0.00 in0.0 mm 0.00 in0.0 mm 0.00 in0.0 mm
11:20 AM 43.5°F6.4°C 33.0°F0.6°C 71% 3.4 mph N5.5 kmh N 7.0 mph11.3 kmh 29.66 in1004.4 mb 0.00 in0.0 mm 0.00 in0.0 mm 0.00 in0.0 mm
11:15 AM 43.6°F6.4°C 33.9°F1.1°C 73% 4.3 mph N6.9 kmh N 7.0 mph11.3 kmh 29.66 in1004.4 mb 0.00 in0.0 mm 0.00 in0.0 mm 0.00 in0.0 mm
11:10 AM 43.5°F6.4°C 33.4°F0.8°C 72% 5.6 mph N9.0 kmh N 8.9 mph14.3 kmh 29.66 in1004.4 mb 0.00 in0.0 mm 0.00 in0.0 mm 0.00 in0.0 mm
11:05 AM 43.2°F6.2°C 31.7°F-0.2°C 68% 3.0 mph NW4.8 kmh NW 7.0 mph11.3 kmh 29.66 in1004.4 mb 0.00 in0.0 mm 0.00 in0.0 mm 0.00 in0.0 mm
11:00 AM 43.7°F6.5°C 32.2°F0.1°C 68% 4.0 mph N6.4 kmh N 9.3 mph15.0 kmh 29.66 in1004.4 mb 0.00 in0.0 mm 0.00 in0.0 mm 0.00 in0.0 mm
10:55 AM 44.0°F6.7°C 33.5°F0.8°C 71% 5.4 mph NW8.7 kmh NW 8.5 mph13.7 kmh 29.66 in1004.4 mb 0.00 in0.0 mm 0.00 in0.0 mm 0.00 in0.0 mm
10:50 AM 42.9°F6.1°C 32.8°F0.4°C 72% 4.1 mph WNW6.6 kmh WNW 6.7 mph10.8 kmh 29.66 in1004.4 mb 0.00 in0.0 mm 0.00 in0.0 mm 0.00 in0.0 mm
10:45 AM 42.0°F5.6°C 32.3°F0.2°C 73% 4.9 mph NE7.9 kmh NE 12.0 mph19.3 kmh 29.66 in1004.4 mb 0.00 in0.0 mm 0.00 in0.0 mm 0.00 in0.0 mm
10:40 AM 42.1°F5.6°C 33.1°F0.6°C 75% 5.6 mph NNE9.0 kmh NNE 10.0 mph16.1 kmh 29.66 in1004.4 mb 0.00 in0.0 mm 0.00 in0.0 mm 0.00 in0.0 mm
10:35 AM 42.3°F5.7°C 32.2°F0.1°C 72% 4.2 mph NNE6.8 kmh NNE 10.0 mph16.1 kmh 29.66 in1004.4 mb 0.00 in0.0 mm 0.00 in0.0 mm 0.00 in0.0 mm
10:30 AM 42.3°F5.7°C 31.5°F-0.3°C 70% 5.2 mph N8.4 kmh N 8.4 mph13.5 kmh 29.66 in1004.4 mb 0.00 in0.0 mm 0.00 in0.0 mm 0.00 in0.0 mm
10:25 AM 42.1°F5.6°C 31.7°F-0.2°C 71% 6.3 mph N10.1 kmh N 12.4 mph20.0 kmh 29.66 in1004.4 mb 0.00 in0.0 mm 0.00 in0.0 mm 0.00 in0.0 mm
10:20 AM 41.9°F5.5°C 31.8°F-0.1°C 72% 5.1 mph N8.2 kmh N 9.3 mph15.0 kmh 29.66 in1004.4 mb 0.00 in0.0 mm 0.00 in0.0 mm 0.00 in0.0 mm
10:15 AM 41.8°F5.4°C 31.3°F-0.4°C 71% 4.9 mph N7.9 kmh N 8.4 mph13.5 kmh 29.66 in1004.4 mb 0.00 in0.0 mm 0.00 in0.0 mm 0.00 in0.0 mm
10:10 AM 41.7°F5.4°C 30.9°F-0.6°C 70% 5.7 mph NNW9.2 kmh NNW 8.5 mph13.7 kmh 29.66 in1004.4 mb 0.00 in0.0 mm 0.00 in0.0 mm 0.00 in0.0 mm
10:05 AM 42.1°F5.6°C 31.6°F-0.2°C 71% 7.3 mph NNW11.7 kmh NNW 11.6 mph18.7 kmh 29.66 in1004.4 mb 0.00 in0.0 mm 0.00 in0.0 mm 0.00 in0.0 mm
10:00 AM 42.2°F5.7°C 33.2°F0.7°C 75% 6.2 mph WNW10.0 kmh WNW 14.6 mph23.5 kmh 29.66 in1004.4 mb 0.00 in0.0 mm 0.00 in0.0 mm 0.00 in0.0 mm
09:55 AM 41.7°F5.4°C 32.3°F0.2°C 74% 5.0 mph N8.0 kmh N 8.4 mph13.5 kmh 29.66 in1004.4 mb 0.00 in0.0 mm 0.00 in0.0 mm 0.00 in0.0 mm
09:50 AM 41.2°F5.1°C 30.7°F-0.7°C 71% 3.4 mph N5.5 kmh N 7.7 mph12.4 kmh 29.66 in1004.4 mb 0.00 in0.0 mm 0.00 in0.0 mm 0.00 in0.0 mm
09:45 AM 40.7°F4.8°C 29.9°F-1.2°C 70% 6.6 mph N10.6 kmh N 11.9 mph19.2 kmh 29.65 in1004.1 mb 0.00 in0.0 mm 0.00 in0.0 mm 0.00 in0.0 mm
09:40 AM 40.8°F4.9°C 30.0°F-1.1°C 70% 6.4 mph NNW10.3 kmh NNW 11.1 mph17.9 kmh 29.65 in1004.1 mb 0.00 in0.0 mm 0.00 in0.0 mm 0.00 in0.0 mm
09:35 AM 41.3°F5.2°C 31.2°F-0.4°C 72% 6.9 mph NW11.1 kmh NW 10.3 mph16.6 kmh 29.66 in1004.4 mb 0.00 in0.0 mm 0.00 in0.0 mm 0.00 in0.0 mm
09:30 AM 41.3°F5.2°C 31.6°F-0.2°C 73% 6.4 mph N10.3 kmh N 12.4 mph20.0 kmh 29.66 in1004.4 mb 0.00 in0.0 mm 0.00 in0.0 mm 0.00 in0.0 mm
09:25 AM 41.2°F5.1°C 31.1°F-0.5°C 72% 5.2 mph NNE8.4 kmh NNE 9.0 mph14.5 kmh 29.66 in1004.4 mb 0.00 in0.0 mm 0.00 in0.0 mm 0.00 in0.0 mm
09:20 AM 40.7°F4.8°C 30.6°F-0.8°C 72% 7.1 mph NW11.4 kmh NW 10.6 mph17.1 kmh 29.66 in1004.4 mb 0.00 in0.0 mm 0.00 in0.0 mm 0.00 in0.0 mm
09:15 AM 40.0°F4.4°C 29.9°F-1.2°C 72% 6.5 mph N10.5 kmh N 12.5 mph20.1 kmh 29.66 in1004.4 mb 0.00 in0.0 mm 0.00 in0.0 mm 0.00 in0.0 mm
09:10 AM 39.7°F4.3°C 29.6°F-1.3°C 72% 7.9 mph N12.7 kmh N 13.5 mph21.7 kmh 29.66 in1004.4 mb 0.00 in0.0 mm 0.00 in0.0 mm 0.00 in0.0 mm
09:05 AM 39.3°F4.1°C 29.2°F-1.6°C 72% 7.2 mph NNW11.6 kmh NNW 10.6 mph17.1 kmh 29.66 in1004.4 mb 0.00 in0.0 mm 0.00 in0.0 mm 0.00 in0.0 mm
09:00 AM 39.1°F3.9°C 29.4°F-1.4°C 73% 8.6 mph NW13.8 kmh NW 13.8 mph22.2 kmh 29.66 in1004.4 mb 0.00 in0.0 mm 0.00 in0.0 mm 0.00 in0.0 mm
08:55 AM 38.9°F3.8°C 29.2°F-1.6°C 73% 5.4 mph NW8.7 kmh NW 10.5 mph16.9 kmh 29.67 in1004.7 mb 0.00 in0.0 mm 0.00 in0.0 mm 0.00 in0.0 mm
08:50 AM 39.0°F3.9°C 29.3°F-1.5°C 73% 7.9 mph NW12.7 kmh NW 11.6 mph18.7 kmh 29.67 in1004.7 mb 0.00 in0.0 mm 0.00 in0.0 mm 0.00 in0.0 mm
08:45 AM 39.1°F3.9°C 29.7°F-1.3°C 74% 7.5 mph NNW12.1 kmh NNW 13.0 mph20.9 kmh 29.67 in1004.7 mb 0.00 in0.0 mm 0.00 in0.0 mm 0.00 in0.0 mm
08:40 AM 39.1°F3.9°C 30.1°F-1.1°C 75% 7.3 mph N11.7 kmh N 11.9 mph19.2 kmh 29.67 in1004.7 mb 0.00 in0.0 mm 0.00 in0.0 mm 0.00 in0.0 mm
08:35 AM 38.8°F3.8°C 29.8°F-1.2°C 75% 7.6 mph N12.2 kmh N 12.5 mph20.1 kmh 29.67 in1004.7 mb 0.00 in0.0 mm 0.00 in0.0 mm 0.00 in0.0 mm
08:30 AM 38.6°F3.7°C 29.6°F-1.3°C 75% 7.5 mph NNW12.1 kmh NNW 14.6 mph23.5 kmh 29.67 in1004.7 mb 0.00 in0.0 mm 0.00 in0.0 mm 0.00 in0.0 mm
08:25 AM 38.5°F3.6°C 29.5°F-1.4°C 75% 7.7 mph N12.4 kmh N 11.6 mph18.7 kmh 29.67 in1004.7 mb 0.00 in0.0 mm 0.00 in0.0 mm 0.00 in0.0 mm
08:20 AM 38.7°F3.7°C 29.7°F-1.3°C 75% 6.4 mph NNW10.3 kmh NNW 9.8 mph15.8 kmh 29.67 in1004.7 mb 0.00 in0.0 mm 0.00 in0.0 mm 0.00 in0.0 mm
08:15 AM 38.7°F3.7°C 30.4°F-0.9°C 77% 7.1 mph NNW11.4 kmh NNW 11.4 mph18.3 kmh 29.67 in1004.7 mb 0.00 in0.0 mm 0.00 in0.0 mm 0.00 in0.0 mm
08:10 AM 38.2°F3.4°C 30.3°F-0.9°C 78% 6.5 mph NNW10.5 kmh NNW 10.3 mph16.6 kmh 29.67 in1004.7 mb 0.00 in0.0 mm 0.00 in0.0 mm 0.00 in0.0 mm
08:05 AM 37.7°F3.2°C 30.5°F-0.8°C 80% 4.4 mph WNW7.1 kmh WNW 8.1 mph13.0 kmh 29.68 in1005.1 mb 0.00 in0.0 mm 0.00 in0.0 mm 0.00 in0.0 mm
08:00 AM 37.0°F2.8°C 30.2°F-1.0°C 81% 5.4 mph NW8.7 kmh NW 9.8 mph15.8 kmh 29.67 in1004.7 mb 0.00 in0.0 mm 0.00 in0.0 mm 0.00 in0.0 mm
07:55 AM 36.5°F2.5°C 29.7°F-1.3°C 81% 3.5 mph NNW5.6 kmh NNW 7.5 mph12.1 kmh 29.67 in1004.7 mb 0.00 in0.0 mm 0.00 in0.0 mm 0.00 in0.0 mm
07:50 AM 36.3°F2.4°C 29.8°F-1.2°C 82% 2.7 mph WNW4.3 kmh WNW 5.7 mph9.2 kmh 29.67 in1004.7 mb 0.00 in0.0 mm 0.00 in0.0 mm 0.00 in0.0 mm
07:45 AM 36.2°F2.3°C 29.7°F-1.3°C 82% 3.4 mph NNW5.5 kmh NNW 6.2 mph10.0 kmh 29.67 in1004.7 mb 0.00 in0.0 mm 0.00 in0.0 mm 0.00 in0.0 mm
07:40 AM 35.9°F2.2°C 29.8°F-1.2°C 83% 2.7 mph NW4.3 kmh NW 5.0 mph8.0 kmh 29.67 in1004.7 mb 0.00 in0.0 mm 0.00 in0.0 mm 0.00 in0.0 mm
07:35 AM 35.7°F2.1°C 29.5°F-1.4°C 83% 2.8 mph WSW4.5 kmh WSW 5.0 mph8.0 kmh 29.67 in1004.7 mb 0.00 in0.0 mm 0.00 in0.0 mm 0.00 in0.0 mm
07:30 AM 35.3°F1.8°C 29.1°F-1.6°C 83% 1.5 mph W2.4 kmh W 3.7 mph6.0 kmh 29.67 in1004.7 mb 0.00 in0.0 mm 0.00 in0.0 mm 0.00 in0.0 mm
07:25 AM 34.8°F1.6°C 28.7°F-1.8°C 83% 2.8 mph W4.5 kmh W 6.2 mph10.0 kmh 29.67 in1004.7 mb 0.00 in0.0 mm 0.00 in0.0 mm 0.00 in0.0 mm
07:20 AM 34.3°F1.3°C 28.2°F-2.1°C 83% 2.4 mph W3.9 kmh W 4.4 mph7.1 kmh 29.67 in1004.7 mb 0.00 in0.0 mm 0.00 in0.0 mm 0.00 in0.0 mm
07:15 AM 33.9°F1.1°C 28.2°F-2.1°C 84% 2.3 mph NW3.7 kmh NW 5.0 mph8.0 kmh 29.66 in1004.4 mb 0.00 in0.0 mm 0.00 in0.0 mm 0.00 in0.0 mm
07:10 AM 33.7°F0.9°C 28.0°F-2.2°C 84% 1.9 mph NW3.1 kmh NW 4.0 mph6.4 kmh 29.66 in1004.4 mb 0.00 in0.0 mm 0.00 in0.0 mm 0.00 in0.0 mm
07:05 AM 33.7°F0.9°C 27.9°F-2.3°C 84% 2.3 mph NNW3.7 kmh NNW 5.4 mph8.7 kmh 29.66 in1004.4 mb 0.00 in0.0 mm 0.00 in0.0 mm 0.00 in0.0 mm
07:00 AM 33.4°F0.8°C 27.6°F-2.4°C 84% 2.4 mph NNW3.9 kmh NNW 5.7 mph9.2 kmh 29.66 in1004.4 mb 0.00 in0.0 mm 0.00 in0.0 mm 0.00 in0.0 mm
06:55 AM 33.2°F0.7°C 27.8°F-2.3°C 85% 3.0 mph NW4.8 kmh NW 5.5 mph8.9 kmh 29.66 in1004.4 mb 0.00 in0.0 mm 0.00 in0.0 mm 0.00 in0.0 mm
06:50 AM 32.9°F0.5°C 27.5°F-2.5°C 85% 2.8 mph NNW4.5 kmh NNW 5.0 mph8.0 kmh 29.66 in1004.4 mb 0.00 in0.0 mm 0.00 in0.0 mm 0.00 in0.0 mm
06:45 AM 32.7°F0.4°C 27.3°F-2.6°C 85% 1.8 mph NW2.9 kmh NW 5.0 mph8.0 kmh 29.66 in1004.4 mb 0.00 in0.0 mm 0.00 in0.0 mm 0.00 in0.0 mm
06:40 AM 32.6°F0.3°C 27.5°F-2.5°C 86% 1.2 mph NW1.9 kmh NW 5.4 mph8.7 kmh 29.65 in1004.1 mb 0.00 in0.0 mm 0.00 in0.0 mm 0.00 in0.0 mm
06:35 AM 32.4°F0.2°C 27.3°F-2.6°C 86% 1.6 mph NW2.6 kmh NW 5.5 mph8.9 kmh 29.65 in1004.1 mb 0.00 in0.0 mm 0.00 in0.0 mm 0.00 in0.0 mm
06:30 AM 32.2°F0.1°C 27.2°F-2.7°C 86% 0.3 mph WSW0.5 kmh WSW 2.6 mph4.2 kmh 29.65 in1004.1 mb 0.00 in0.0 mm 0.00 in0.0 mm 0.00 in0.0 mm
06:25 AM 32.1°F0.1°C 27.4°F-2.6°C 87% 1.3 mph SW2.1 kmh SW 6.2 mph10.0 kmh 29.65 in1004.1 mb 0.00 in0.0 mm 0.00 in0.0 mm 0.00 in0.0 mm
06:20 AM 32.0°F0.0°C 27.3°F-2.6°C 87% 0.1 mph NW0.2 kmh NW 1.6 mph2.6 kmh 29.65 in1004.1 mb 0.00 in0.0 mm 0.00 in0.0 mm 0.00 in0.0 mm
06:15 AM 31.9°F-0.1°C 27.2°F-2.7°C 87% 1.1 mph NW1.8 kmh NW 4.2 mph6.8 kmh 29.65 in1004.1 mb 0.00 in0.0 mm 0.00 in0.0 mm 0.00 in0.0 mm
06:10 AM 31.8°F-0.1°C 27.1°F-2.7°C 87% 0.7 mph NW1.1 kmh NW 3.2 mph5.1 kmh 29.65 in1004.1 mb 0.00 in0.0 mm 0.00 in0.0 mm 0.00 in0.0 mm
06:05 AM 31.7°F-0.2°C 27.0°F-2.8°C 87% 1.2 mph WNW1.9 kmh WNW 3.2 mph5.1 kmh 29.64 in1003.7 mb 0.00 in0.0 mm 0.00 in0.0 mm 0.00 in0.0 mm
06:00 AM 31.6°F-0.2°C 27.3°F-2.6°C 88% 0.8 mph NNW1.3 kmh NNW 3.7 mph6.0 kmh 29.64 in1003.7 mb 0.00 in0.0 mm 0.00 in0.0 mm 0.00 in0.0 mm
05:55 AM 31.3°F-0.4°C 27.0°F-2.8°C 88% 0.7 mph WNW1.1 kmh WNW 3.2 mph5.1 kmh 29.64 in1003.7 mb 0.00 in0.0 mm 0.00 in0.0 mm 0.00 in0.0 mm
05:50 AM 31.1°F-0.5°C 26.8°F-2.9°C 88% 0.3 mph WNW0.5 kmh WNW 2.6 mph4.2 kmh 29.64 in1003.7 mb 0.00 in0.0 mm 0.00 in0.0 mm 0.00 in0.0 mm
05:45 AM 30.9°F-0.6°C 27.0°F-2.8°C 89% 0.7 mph WNW1.1 kmh WNW 2.7 mph4.3 kmh 29.64 in1003.7 mb 0.00 in0.0 mm 0.00 in0.0 mm 0.00 in0.0 mm
05:40 AM 30.8°F-0.7°C 26.8°F-2.9°C 89% 0.5 mph WNW0.8 kmh WNW 2.7 mph4.3 kmh 29.64 in1003.7 mb 0.00 in0.0 mm 0.00 in0.0 mm 0.00 in0.0 mm
05:35 AM 30.6°F-0.8°C 26.6°F-3.0°C 89% Calm Calm 1.1 mph1.8 kmh 29.64 in1003.7 mb 0.00 in0.0 mm 0.00 in0.0 mm 0.00 in0.0 mm
05:30 AM 30.3°F-0.9°C 26.3°F-3.2°C 89% Calm Calm -- 29.64 in1003.7 mb 0.00 in0.0 mm 0.00 in0.0 mm 0.00 in0.0 mm
05:25 AM 30.1°F-1.1°C 26.5°F-3.1°C 90% 0.1 mph SW0.2 kmh SW 2.2 mph3.5 kmh 29.64 in1003.7 mb 0.00 in0.0 mm 0.00 in0.0 mm 0.00 in0.0 mm
05:20 AM 29.9°F-1.2°C 25.9°F-3.4°C 89% Calm Calm -- 29.63 in1003.4 mb 0.00 in0.0 mm 0.00 in0.0 mm 0.00 in0.0 mm
05:15 AM 30.0°F-1.1°C 26.1°F-3.3°C 89% 0.2 mph SW0.3 kmh SW 1.8 mph2.9 kmh 29.63 in1003.4 mb 0.00 in0.0 mm 0.00 in0.0 mm 0.00 in0.0 mm
05:10 AM 30.2°F-1.0°C 26.2°F-3.2°C 89% Calm Calm -- 29.63 in1003.4 mb 0.00 in0.0 mm 0.00 in0.0 mm 0.00 in0.0 mm
05:05 AM 30.3°F-0.9°C 26.3°F-3.2°C 89% Calm Calm -- 29.63 in1003.4 mb 0.00 in0.0 mm 0.00 in0.0 mm 0.00 in0.0 mm
05:00 AM 30.3°F-0.9°C 26.0°F-3.3°C 88% 0.9 mph SW1.4 kmh SW 3.2 mph5.1 kmh 29.63 in1003.4 mb 0.00 in0.0 mm 0.00 in0.0 mm 0.00 in0.0 mm
04:55 AM 30.5°F-0.8°C 26.2°F-3.2°C 88% 1.5 mph SW2.4 kmh SW 2.6 mph4.2 kmh 29.63 in1003.4 mb 0.00 in0.0 mm 0.00 in0.0 mm 0.00 in0.0 mm
04:50 AM 30.6°F-0.8°C 26.3°F-3.2°C 88% 1.6 mph SW2.6 kmh SW 2.6 mph4.2 kmh 29.63 in1003.4 mb 0.00 in0.0 mm 0.00 in0.0 mm 0.00 in0.0 mm
04:45 AM 30.8°F-0.7°C 26.5°F-3.1°C 88% 0.8 mph SSW1.3 kmh SSW 2.2 mph3.5 kmh 29.62 in1003.0 mb 0.00 in0.0 mm 0.00 in0.0 mm 0.00 in0.0 mm
04:40 AM 30.8°F-0.7°C 26.5°F-3.1°C 88% Calm Calm 1.1 mph1.8 kmh 29.63 in1003.4 mb 0.00 in0.0 mm 0.00 in0.0 mm 0.00 in0.0 mm
04:35 AM 30.9°F-0.6°C 26.6°F-3.0°C 88% 0.1 mph SSW0.2 kmh SSW 1.1 mph1.8 kmh 29.62 in1003.0 mb 0.00 in0.0 mm 0.00 in0.0 mm 0.00 in0.0 mm
04:30 AM 31.0°F-0.6°C 26.7°F-2.9°C 88% 0.9 mph SSW1.4 kmh SSW 2.1 mph3.4 kmh 29.63 in1003.4 mb 0.00 in0.0 mm 0.00 in0.0 mm 0.00 in0.0 mm
04:25 AM 31.0°F-0.6°C 26.3°F-3.2°C 87% 1.8 mph SW2.9 kmh SW 3.2 mph5.1 kmh 29.62 in1003.0 mb 0.00 in0.0 mm 0.00 in0.0 mm 0.00 in0.0 mm
04:20 AM 31.0°F-0.6°C 26.3°F-3.2°C 87% Calm Calm -- 29.63 in1003.4 mb 0.00 in0.0 mm 0.00 in0.0 mm 0.00 in0.0 mm
04:15 AM 31.1°F-0.5°C 26.4°F-3.1°C 87% 0.4 mph WNW0.6 kmh WNW 2.2 mph3.5 kmh 29.62 in1003.0 mb 0.00 in0.0 mm 0.00 in0.0 mm 0.00 in0.0 mm
04:10 AM 31.3°F-0.4°C 26.2°F-3.2°C 86% 0.6 mph NNW1.0 kmh NNW 2.1 mph3.4 kmh 29.62 in1003.0 mb 0.00 in0.0 mm 0.00 in0.0 mm 0.00 in0.0 mm
04:05 AM 31.3°F-0.4°C 26.3°F-3.2°C 86% 1.5 mph NW2.4 kmh NW 4.0 mph6.4 kmh 29.62 in1003.0 mb 0.00 in0.0 mm 0.00 in0.0 mm 0.00 in0.0 mm
04:00 AM 31.4°F-0.3°C 26.4°F-3.1°C 86% 1.5 mph WNW2.4 kmh WNW 2.7 mph4.3 kmh 29.62 in1003.0 mb 0.00 in0.0 mm 0.00 in0.0 mm 0.00 in0.0 mm
03:55 AM 31.6°F-0.2°C 26.6°F-3.0°C 86% 0.9 mph W1.4 kmh W 3.0 mph4.8 kmh 29.63 in1003.4 mb 0.00 in0.0 mm 0.00 in0.0 mm 0.00 in0.0 mm
03:50 AM 31.7°F-0.2°C 26.7°F-2.9°C 86% 0.5 mph WSW0.8 kmh WSW 2.6 mph4.2 kmh 29.63 in1003.4 mb 0.00 in0.0 mm 0.00 in0.0 mm 0.00 in0.0 mm
03:45 AM 31.8°F-0.1°C 26.8°F-2.9°C 86% 0.7 mph WSW1.1 kmh WSW 1.8 mph2.9 kmh 29.63 in1003.4 mb 0.00 in0.0 mm 0.00 in0.0 mm 0.00 in0.0 mm
03:40 AM 31.8°F-0.1°C 26.8°F-2.9°C 86% 1.1 mph WSW1.8 kmh WSW 2.7 mph4.3 kmh 29.63 in1003.4 mb 0.00 in0.0 mm 0.00 in0.0 mm 0.00 in0.0 mm
03:35 AM 31.8°F-0.1°C 26.8°F-2.9°C 86% 0.8 mph WSW1.3 kmh WSW 2.7 mph4.3 kmh 29.63 in1003.4 mb 0.00 in0.0 mm 0.00 in0.0 mm 0.00 in0.0 mm
03:30 AM 31.8°F-0.1°C 26.7°F-2.9°C 86% 2.3 mph WSW3.7 kmh WSW 4.0 mph6.4 kmh 29.63 in1003.4 mb 0.00 in0.0 mm 0.00 in0.0 mm 0.00 in0.0 mm
03:25 AM 31.6°F-0.2°C 26.6°F-3.0°C 86% 1.0 mph WSW1.6 kmh WSW 3.7 mph6.0 kmh 29.63 in1003.4 mb 0.00 in0.0 mm 0.00 in0.0 mm 0.00 in0.0 mm
03:20 AM 31.3°F-0.4°C 26.6°F-3.0°C 87% 1.6 mph WSW2.6 kmh WSW 3.5 mph5.6 kmh 29.63 in1003.4 mb 0.00 in0.0 mm 0.00 in0.0 mm 0.00 in0.0 mm
03:15 AM 30.8°F-0.7°C 26.4°F-3.1°C 88% 2.8 mph WSW4.5 kmh WSW 4.7 mph7.6 kmh 29.63 in1003.4 mb 0.00 in0.0 mm 0.00 in0.0 mm 0.00 in0.0 mm
03:10 AM 30.3°F-0.9°C 26.0°F-3.3°C 88% 2.2 mph WSW3.5 kmh WSW 5.4 mph8.7 kmh 29.63 in1003.4 mb 0.00 in0.0 mm 0.00 in0.0 mm 0.00 in0.0 mm
03:05 AM 30.1°F-1.1°C 25.8°F-3.4°C 88% 2.9 mph SW4.7 kmh SW 6.5 mph10.5 kmh 29.63 in1003.4 mb 0.00 in0.0 mm 0.00 in0.0 mm 0.00 in0.0 mm
03:00 AM 30.0°F-1.1°C 25.7°F-3.5°C 88% 1.7 mph SSW2.7 kmh SSW 3.7 mph6.0 kmh 29.63 in1003.4 mb 0.00 in0.0 mm 0.00 in0.0 mm 0.00 in0.0 mm
02:55 AM 30.0°F-1.1°C 25.7°F-3.5°C 88% 1.4 mph SSW2.3 kmh SSW 3.0 mph4.8 kmh 29.63 in1003.4 mb 0.00 in0.0 mm 0.00 in0.0 mm 0.00 in0.0 mm
02:50 AM 29.8°F-1.2°C 25.1°F-3.8°C 87% 1.6 mph SSW2.6 kmh SSW 2.6 mph4.2 kmh 29.63 in1003.4 mb 0.00 in0.0 mm 0.00 in0.0 mm 0.00 in0.0 mm
02:45 AM 29.9°F-1.2°C 25.2°F-3.8°C 87% 2.2 mph SSW3.5 kmh SSW 3.2 mph5.1 kmh 29.63 in1003.4 mb 0.00 in0.0 mm 0.00 in0.0 mm 0.00 in0.0 mm
02:40 AM 30.1°F-1.1°C 25.0°F-3.9°C 86% 2.1 mph SSW3.4 kmh SSW 2.6 mph4.2 kmh 29.63 in1003.4 mb 0.00 in0.0 mm 0.00 in0.0 mm 0.00 in0.0 mm
02:35 AM 30.3°F-0.9°C 25.2°F-3.8°C 86% 1.6 mph SSW2.6 kmh SSW 2.2 mph3.5 kmh 29.63 in1003.4 mb 0.00 in0.0 mm 0.00 in0.0 mm 0.00 in0.0 mm
02:30 AM 30.6°F-0.8°C 25.2°F-3.8°C 85% 1.7 mph SSW2.7 kmh SSW 4.0 mph6.4 kmh 29.63 in1003.4 mb 0.00 in0.0 mm 0.00 in0.0 mm 0.00 in0.0 mm
02:25 AM 30.9°F-0.6°C 25.5°F-3.6°C 85% 1.8 mph SSW2.9 kmh SSW 3.2 mph5.1 kmh 29.63 in1003.4 mb 0.00 in0.0 mm 0.00 in0.0 mm 0.00 in0.0 mm
02:20 AM 31.1°F-0.5°C 25.7°F-3.5°C 85% 2.4 mph SSW3.9 kmh SSW 4.0 mph6.4 kmh 29.63 in1003.4 mb 0.00 in0.0 mm 0.00 in0.0 mm 0.00 in0.0 mm
02:15 AM 31.2°F-0.4°C 25.8°F-3.4°C 85% 1.3 mph SSW2.1 kmh SSW 3.0 mph4.8 kmh 29.63 in1003.4 mb 0.00 in0.0 mm 0.00 in0.0 mm 0.00 in0.0 mm
02:10 AM 31.1°F-0.5°C 26.1°F-3.3°C 86% Calm Calm -- 29.63 in1003.4 mb 0.00 in0.0 mm 0.00 in0.0 mm 0.00 in0.0 mm
02:05 AM 30.9°F-0.6°C 25.8°F-3.4°C 86% 1.3 mph NW2.1 kmh NW 4.4 mph7.1 kmh 29.63 in1003.4 mb 0.00 in0.0 mm 0.00 in0.0 mm 0.00 in0.0 mm
02:00 AM 30.6°F-0.8°C 25.6°F-3.6°C 86% 1.2 mph NNW1.9 kmh NNW 3.7 mph6.0 kmh 29.63 in1003.4 mb 0.00 in0.0 mm 0.00 in0.0 mm 0.00 in0.0 mm
01:55 AM 30.6°F-0.8°C 25.6°F-3.6°C 86% 1.7 mph NW2.7 kmh NW 4.9 mph7.9 kmh 29.63 in1003.4 mb 0.00 in0.0 mm 0.00 in0.0 mm 0.00 in0.0 mm
01:50 AM 30.8°F-0.7°C 25.4°F-3.7°C 85% Calm Calm -- 29.64 in1003.7 mb 0.00 in0.0 mm 0.00 in0.0 mm 0.00 in0.0 mm
01:45 AM 31.2°F-0.4°C 25.8°F-3.4°C 85% Calm Calm 1.3 mph2.1 kmh 29.64 in1003.7 mb 0.00 in0.0 mm 0.00 in0.0 mm 0.00 in0.0 mm
01:40 AM 31.5°F-0.3°C 26.1°F-3.3°C 85% Calm Calm -- 29.64 in1003.7 mb 0.00 in0.0 mm 0.00 in0.0 mm 0.00 in0.0 mm
01:35 AM 31.5°F-0.3°C 25.7°F-3.5°C 84% Calm Calm -- 29.64 in1003.7 mb 0.00 in0.0 mm 0.00 in0.0 mm 0.00 in0.0 mm
01:30 AM 31.4°F-0.3°C 25.3°F-3.7°C 83% 2.0 mph SW3.2 kmh SW 3.2 mph5.1 kmh 29.64 in1003.7 mb 0.00 in0.0 mm 0.00 in0.0 mm 0.00 in0.0 mm
01:25 AM 31.6°F-0.2°C 25.1°F-3.8°C 82% 2.1 mph SW3.4 kmh SW 3.5 mph5.6 kmh 29.64 in1003.7 mb 0.00 in0.0 mm 0.00 in0.0 mm 0.00 in0.0 mm
01:20 AM 31.9°F-0.1°C 25.4°F-3.7°C 82% 2.7 mph SSW4.3 kmh SSW 4.2 mph6.8 kmh 29.64 in1003.7 mb 0.00 in0.0 mm 0.00 in0.0 mm 0.00 in0.0 mm
01:15 AM 32.2°F0.1°C 25.7°F-3.5°C 82% 1.7 mph SSW2.7 kmh SSW 3.0 mph4.8 kmh 29.64 in1003.7 mb 0.00 in0.0 mm 0.00 in0.0 mm 0.00 in0.0 mm
01:10 AM 32.3°F0.2°C 25.8°F-3.4°C 82% Calm Calm 1.1 mph1.8 kmh 29.64 in1003.7 mb 0.00 in0.0 mm 0.00 in0.0 mm 0.00 in0.0 mm
01:05 AM 32.4°F0.2°C 25.9°F-3.4°C 82% 0.5 mph NW0.8 kmh NW 2.6 mph4.2 kmh 29.64 in1003.7 mb 0.00 in0.0 mm 0.00 in0.0 mm 0.00 in0.0 mm
01:00 AM 32.5°F0.3°C 26.0°F-3.3°C 82% 1.8 mph NW2.9 kmh NW 3.5 mph5.6 kmh 29.64 in1003.7 mb 0.00 in0.0 mm 0.00 in0.0 mm 0.00 in0.0 mm
12:55 AM 32.5°F0.3°C 26.0°F-3.3°C 82% 1.8 mph NW2.9 kmh NW 3.2 mph5.1 kmh 29.65 in1004.1 mb 0.00 in0.0 mm 0.00 in0.0 mm 0.00 in0.0 mm
12:50 AM 32.3°F0.2°C 25.8°F-3.4°C 82% 1.9 mph NW3.1 kmh NW 4.7 mph7.6 kmh 29.65 in1004.1 mb 0.00 in0.0 mm 0.00 in0.0 mm 0.00 in0.0 mm
12:45 AM 32.2°F0.1°C 25.7°F-3.5°C 82% 2.6 mph NNW4.2 kmh NNW 3.7 mph6.0 kmh 29.65 in1004.1 mb 0.00 in0.0 mm 0.00 in0.0 mm 0.00 in0.0 mm
12:40 AM 32.3°F0.2°C 25.8°F-3.4°C 82% 2.6 mph WNW4.2 kmh WNW 4.0 mph6.4 kmh 29.65 in1004.1 mb 0.00 in0.0 mm 0.00 in0.0 mm 0.00 in0.0 mm
12:35 AM 32.5°F0.3°C 26.0°F-3.3°C 82% 3.0 mph NNW4.8 kmh NNW 4.4 mph7.1 kmh 29.65 in1004.1 mb 0.00 in0.0 mm 0.00 in0.0 mm 0.00 in0.0 mm
12:30 AM 32.7°F0.4°C 26.2°F-3.2°C 82% 2.9 mph NW4.7 kmh NW 5.4 mph8.7 kmh 29.65 in1004.1 mb 0.00 in0.0 mm 0.00 in0.0 mm 0.00 in0.0 mm
12:25 AM 32.7°F0.4°C 25.9°F-3.4°C 81% 1.4 mph NW2.3 kmh NW 3.0 mph4.8 kmh 29.65 in1004.1 mb 0.00 in0.0 mm 0.00 in0.0 mm 0.00 in0.0 mm
12:20 AM 32.8°F0.4°C 26.0°F-3.3°C 81% 1.1 mph NW1.8 kmh NW 3.5 mph5.6 kmh 29.65 in1004.1 mb 0.00 in0.0 mm 0.00 in0.0 mm 0.00 in0.0 mm
12:15 AM 33.1°F0.6°C 25.9°F-3.4°C 80% Calm Calm -- 29.65 in1004.1 mb 0.00 in0.0 mm 0.00 in0.0 mm 0.00 in0.0 mm
12:10 AM 33.3°F0.7°C 26.1°F-3.3°C 80% 0.1 mph NW0.2 kmh NW 1.6 mph2.6 kmh 29.65 in1004.1 mb 0.00 in0.0 mm 0.00 in0.0 mm 0.00 in0.0 mm
12:05 AM 33.5°F0.8°C 26.3°F-3.2°C 80% Calm Calm -- 29.65 in1004.1 mb 0.00 in0.0 mm 0.00 in0.0 mm 0.00 in0.0 mm
12:00 AM 33.5°F0.8°C 26.3°F-3.2°C 80% 0.9 mph NW1.4 kmh NW 2.2 mph3.5 kmh 29.65 in1004.1 mb 0.00 in0.0 mm 0.00 in0.0 mm 0.19 in4.8 mm
WeatherForYou.com, LLC is not responsible for any damages or problems caused by this service. Current weather conditions are obtained from the closest station including government and personal stations which may have varying degrees of accuracy. Weather forecasts are derived from the NOAA NDFD and obtained through HAMweather's Aeris Weather API. Like all things, this site belongs to Jesus Christ... He just trusts me to maintain it. If you have any questions or comments email webmaster@weatherforyou.com

Copyright © 2015, WeatherForYou.com LLC. All rights reserved.